Time;durP1;ratioP1;P1;durP2;ratioP2;P2;SDS_P1;SDS_P2;PMS_P1;PMS_P2;Temp;Humidity;BMP_temperature;BMP_pressure;BME280_temperature;BME280_humidity;BME280_pressure;Samples;Min_cycle;Max_cycle;Signal;HPM_P1;HPM_P2
2021/06/17 00:00:22;;;;;;;4.90;4.37;;;21.00;1.00;;;;;;5038025;28;20544;-77
2021/06/17 00:02:49;;;;;;;4.90;4.50;;;20.90;1.00;;;;;;5038588;28;20462;-78
2021/06/17 00:05:18;;;;;;;5.10;4.33;;;20.90;1.00;;;;;;5038445;28;20479;-78
2021/06/17 00:07:46;;;;;;;5.53;4.90;;;20.80;1.00;;;;;;5044768;28;20436;-77
2021/06/17 00:10:19;;;;;;;5.17;4.40;;;20.90;1.00;;;;;;5037965;28;20445;-78
2021/06/17 00:12:46;;;;;;;5.53;5.00;;;20.80;1.00;;;;;;5040562;28;20464;-78
2021/06/17 00:15:14;;;;;;;5.47;4.73;;;20.80;1.00;;;;;;5043631;28;20457;-78
2021/06/17 00:17:43;;;;;;;7.53;4.67;;;20.70;1.00;;;;;;5045045;28;20451;-77
2021/06/17 00:20:11;;;;;;;6.30;4.90;;;20.70;1.00;;;;;;5026932;28;20474;-77
2021/06/17 00:22:38;;;;;;;4.97;4.43;;;20.70;1.00;;;;;;5039501;28;20498;-77
2021/06/17 00:25:06;;;;;;;5.93;5.37;;;20.70;1.00;;;;;;5048272;28;20452;-75
2021/06/17 00:27:33;;;;;;;5.63;5.07;;;20.70;1.00;;;;;;5043574;28;20448;-76
2021/06/17 00:30:00;;;;;;;6.67;4.77;;;20.60;1.00;;;;;;5039413;28;20586;-77
2021/06/17 00:32:27;;;;;;;6.23;4.60;;;20.60;1.00;;;;;;5036050;28;20456;-79
2021/06/17 00:34:55;;;;;;;7.47;5.50;;;20.60;1.00;;;;;;5017567;28;20763;-76
2021/06/17 00:37:21;;;;;;;5.67;5.07;;;20.60;1.00;;;;;;5038800;28;20449;-76
2021/06/17 00:39:48;;;;;;;5.07;4.67;;;20.50;1.00;;;;;;5015961;28;20889;-77
2021/06/17 00:42:15;;;;;;;6.13;5.57;;;20.50;1.00;;;;;;5039223;28;20460;-78
2021/06/17 00:44:42;;;;;;;8.53;5.57;;;20.50;1.00;;;;;;5033324;28;20456;-78
2021/06/17 00:47:10;;;;;;;6.57;5.37;;;20.50;1.00;;;;;;5022926;28;20475;-77
2021/06/17 00:49:37;;;;;;;7.13;5.03;;;20.40;1.00;;;;;;5039382;28;20432;-77
2021/06/17 00:52:07;;;;;;;5.97;5.37;;;20.40;1.00;;;;;;5032480;28;21148;-76
2021/06/17 00:54:34;;;;;;;12.57;6.40;;;20.40;1.00;;;;;;5024206;28;20564;-76
2021/06/17 00:57:03;;;;;;;5.73;5.23;;;20.30;1.00;;;;;;5031169;28;20465;-77
2021/06/17 00:59:30;;;;;;;7.10;5.90;;;20.30;1.00;;;;;;5034742;28;21141;-76
2021/06/17 01:01:57;;;;;;;5.93;5.43;;;20.30;1.00;;;;;;5036162;28;20463;-76
2021/06/17 01:04:24;;;;;;;7.30;6.70;;;20.30;1.00;;;;;;5033585;28;20501;-76
2021/06/17 01:06:51;;;;;;;7.57;5.37;;;20.20;1.00;;;;;;5036682;28;20456;-75
2021/06/17 01:09:30;;;;;;;6.50;5.90;;;20.20;1.00;;;;;;5038239;28;20600;-76
2021/06/17 01:12:07;;;;;;;9.70;7.03;;;20.20;1.00;;;;;;5035152;28;20409;-76
2021/06/17 01:14:39;;;;;;;7.57;6.63;;;20.20;1.00;;;;;;5030607;28;20471;-77
2021/06/17 01:17:10;;;;;;;6.80;6.20;;;20.20;1.00;;;;;;5036470;28;21117;-76
2021/06/17 01:19:52;;;;;;;6.70;6.10;;;20.10;1.00;;;;;;5033830;28;20519;-77
2021/06/17 01:22:29;;;;;;;7.20;6.70;;;20.10;1.00;;;;;;5033497;28;20545;-77
2021/06/17 01:25:12;;;;;;;7.37;6.77;;;20.10;1.00;;;;;;5043914;28;20429;-76
2021/06/17 01:28:04;;;;;;;7.30;6.60;;;20.10;1.00;;;;;;5041363;28;20495;-78
2021/06/17 01:30:34;;;;;;;7.87;7.07;;;20.10;1.00;;;;;;5034421;28;20439;-77
2021/06/17 01:33:03;;;;;;;7.90;6.53;;;20.10;1.00;;;;;;5036257;28;20452;-76
2021/06/17 01:35:35;;;;;;;9.23;7.10;;;20.00;1.00;;;;;;5036099;28;20456;-76
2021/06/17 01:38:04;;;;;;;8.33;7.63;;;20.00;1.00;;;;;;5039420;28;20528;-76
2021/06/17 01:40:32;;;;;;;8.37;7.63;;;20.00;1.00;;;;;;5041865;28;20433;-77
2021/06/17 01:43:02;;;;;;;7.47;6.87;;;20.00;1.00;;;;;;5037887;28;20436;-76
2021/06/17 01:45:29;;;;;;;8.10;7.30;;;20.00;1.00;;;;;;5031694;28;20432;-78
2021/06/17 01:47:58;;;;;;;8.87;7.70;;;19.90;1.00;;;;;;5033202;28;20451;-76
2021/06/17 01:50:28;;;;;;;7.60;7.00;;;19.90;1.00;;;;;;5030623;28;20504;-76
2021/06/17 01:52:56;;;;;;;9.17;8.33;;;19.90;1.00;;;;;;5026936;28;20532;-75
2021/06/17 01:55:30;;;;;;;9.00;8.10;;;19.90;1.00;;;;;;5044192;28;20484;-76
2021/06/17 01:58:01;;;;;;;10.50;8.57;;;19.90;1.00;;;;;;5020391;28;20440;-74
2021/06/17 02:00:29;;;;;;;8.70;7.83;;;19.90;1.00;;;;;;5041246;28;20487;-76
2021/06/17 02:02:56;;;;;;;9.27;8.47;;;19.80;1.00;;;;;;5038725;28;20429;-76
2021/06/17 02:05:23;;;;;;;9.10;8.30;;;19.80;1.00;;;;;;5028904;28;20452;-76
2021/06/17 02:07:51;;;;;;;9.10;8.40;;;19.80;1.00;;;;;;5037065;28;20506;-75
2021/06/17 02:10:20;;;;;;;9.17;8.37;;;19.70;1.00;;;;;;5035177;28;20488;-76
2021/06/17 02:12:48;;;;;;;8.77;8.07;;;19.70;1.00;;;;;;5036529;28;20465;-76
2021/06/17 02:15:19;;;;;;;9.00;8.13;;;19.70;1.00;;;;;;5033153;28;25308;-77
2021/06/17 02:17:48;;;;;;;9.57;8.53;;;19.60;1.00;;;;;;5032441;28;20468;-76
2021/06/17 02:20:17;;;;;;;9.27;8.50;;;19.60;1.00;;;;;;5029705;28;20456;-78
2021/06/17 02:22:45;;;;;;;9.77;8.77;;;19.60;1.00;;;;;;5022969;28;20544;-78
2021/06/17 02:25:15;;;;;;;11.90;9.70;;;19.60;1.00;;;;;;5022598;28;21182;-77
2021/06/17 02:27:44;;;;;;;9.27;8.50;;;19.50;1.00;;;;;;5030750;28;21260;-75
2021/06/17 02:30:13;;;;;;;15.00;10.60;;;19.50;1.00;;;;;;5029287;28;20451;-77
2021/06/17 02:32:44;;;;;;;11.63;9.50;;;19.50;1.00;;;;;;5030257;28;20530;-77
2021/06/17 02:35:12;;;;;;;9.93;9.10;;;19.50;1.00;;;;;;5033589;28;20463;-75
2021/06/17 02:37:43;;;;;;;11.13;10.00;;;19.50;1.00;;;;;;5036289;28;20436;-76
2021/06/17 02:40:12;;;;;;;10.80;9.90;;;19.50;1.00;;;;;;5055366;28;20447;-74
2021/06/17 02:42:40;;;;;;;9.80;8.90;;;19.50;1.00;;;;;;5060126;28;20444;-73
2021/06/17 02:45:09;;;;;;;11.60;9.80;;;19.50;1.00;;;;;;5040291;28;20457;-75
2021/06/17 02:47:36;;;;;;;11.87;10.77;;;19.50;1.00;;;;;;5064649;28;20451;-74
2021/06/17 02:50:07;;;;;;;11.67;10.67;;;19.50;1.00;;;;;;5060863;28;20535;-75
2021/06/17 02:52:34;;;;;;;11.47;10.40;;;19.50;1.00;;;;;;5058623;28;20519;-74
2021/06/17 02:55:01;;;;;;;11.60;10.60;;;19.50;1.00;;;;;;5051947;28;20473;-76
2021/06/17 02:57:35;;;;;;;12.90;11.70;;;19.50;1.00;;;;;;5054776;28;20416;-75
2021/06/17 03:00:07;;;;;;;12.30;11.30;;;19.50;1.00;;;;;;5039306;28;20443;-75
2021/06/17 03:02:43;;;;;;;11.43;10.40;;;19.50;1.00;;;;;;5028920;28;20449;-76
2021/06/17 03:05:18;;;;;;;13.07;11.77;;;19.50;1.00;;;;;;5039477;28;20455;-77
2021/06/17 03:07:52;;;;;;;13.37;12.00;;;19.50;1.00;;;;;;5035436;28;20452;-76
2021/06/17 03:10:21;;;;;;;14.03;11.80;;;19.50;1.00;;;;;;5033551;28;20481;-77
2021/06/17 03:12:49;;;;;;;12.37;11.27;;;19.40;1.00;;;;;;5030502;28;20994;-76
2021/06/17 03:15:17;;;;;;;12.37;11.27;;;19.40;1.00;;;;;;5030486;28;20459;-76
2021/06/17 03:17:46;;;;;;;12.93;11.73;;;19.40;1.00;;;;;;5032002;28;20441;-77
2021/06/17 03:20:15;;;;;;;14.80;13.37;;;19.50;1.00;;;;;;5036796;28;20963;-76
2021/06/17 03:22:46;;;;;;;12.67;11.60;;;19.40;1.00;;;;;;5037631;28;23347;-76
2021/06/17 03:25:16;;;;;;;14.50;13.10;;;19.50;1.00;;;;;;5032349;28;20554;-76
2021/06/17 03:27:45;;;;;;;13.13;12.13;;;19.50;1.00;;;;;;5035925;28;20445;-76
2021/06/17 03:30:13;;;;;;;14.03;12.93;;;19.50;1.00;;;;;;5030896;28;20665;-78
2021/06/17 03:32:40;;;;;;;13.87;12.63;;;19.50;1.00;;;;;;5038873;28;21371;-77
2021/06/17 03:35:10;;;;;;;15.53;14.07;;;19.50;1.00;;;;;;5037016;28;21031;-77
2021/06/17 03:37:39;;;;;;;14.83;13.50;;;19.50;1.00;;;;;;5038800;28;20442;-77
2021/06/17 03:40:06;;;;;;;14.77;13.50;;;19.50;1.00;;;;;;5038205;28;21338;-76
2021/06/17 03:42:35;;;;;;;16.07;14.47;;;19.50;1.00;;;;;;5035520;28;20463;-78
2021/06/17 03:45:02;;;;;;;16.40;14.90;;;19.50;1.00;;;;;;5034184;28;20513;-77
2021/06/17 03:47:31;;;;;;;14.37;13.07;;;19.50;1.00;;;;;;5032850;28;20519;-76
2021/06/17 03:49:58;;;;;;;15.10;13.50;;;19.60;1.00;;;;;;5040315;28;20531;-77
2021/06/17 03:52:26;;;;;;;16.73;14.87;;;19.60;1.00;;;;;;5049115;28;20416;-77
2021/06/17 03:54:57;;;;;;;14.07;12.90;;;19.60;1.00;;;;;;5040126;28;20476;-78
2021/06/17 03:57:24;;;;;;;15.57;14.20;;;19.70;1.00;;;;;;5034896;28;20491;-76
2021/06/17 03:59:55;;;;;;;15.00;13.60;;;19.60;1.00;;;;;;5036119;28;20447;-77
2021/06/17 04:02:23;;;;;;;14.93;13.63;;;19.70;1.00;;;;;;5014560;28;20502;-78
2021/06/17 04:04:50;;;;;;;15.20;13.90;;;19.70;1.00;;;;;;5035171;28;20558;-77
2021/06/17 04:07:22;;;;;;;14.90;13.70;;;19.70;1.00;;;;;;5037613;28;20443;-78
2021/06/17 04:09:51;;;;;;;15.40;13.87;;;19.80;1.00;;;;;;5031474;28;20421;-76
2021/06/17 04:12:22;;;;;;;19.03;14.90;;;19.80;1.00;;;;;;5040229;28;20462;-75
2021/06/17 04:14:51;;;;;;;15.00;13.50;;;19.80;1.00;;;;;;5032604;28;20451;-77
2021/06/17 04:17:20;;;;;;;15.10;13.73;;;19.90;1.00;;;;;;5034333;28;20475;-77
2021/06/17 04:19:48;;;;;;;15.50;14.03;;;19.90;1.00;;;;;;5034454;28;20468;-78
2021/06/17 04:22:17;;;;;;;16.60;15.07;;;19.90;1.00;;;;;;5036364;28;20449;-78
2021/06/17 04:24:51;;;;;;;17.63;16.13;;;20.00;1.00;;;;;;5036338;28;20440;-79
2021/06/17 04:27:20;;;;;;;17.03;15.40;;;20.10;1.00;;;;;;5036697;28;20460;-78
2021/06/17 04:29:49;;;;;;;16.47;14.90;;;20.10;1.00;;;;;;5036591;28;20456;-79
2021/06/17 04:32:16;;;;;;;21.20;16.23;;;20.10;1.00;;;;;;5037421;28;20467;-78
2021/06/17 04:34:44;;;;;;;18.93;17.10;;;20.10;1.00;;;;;;5039219;28;20421;-79
2021/06/17 04:37:13;;;;;;;20.77;19.23;;;20.20;1.00;;;;;;5030894;28;20504;-77
2021/06/17 04:39:41;;;;;;;17.83;16.20;;;20.20;1.00;;;;;;5037566;28;20565;-78
2021/06/17 04:42:10;;;;;;;17.43;15.97;;;20.30;1.00;;;;;;5018314;28;21228;-75
2021/06/17 04:44:41;;;;;;;18.00;16.40;;;20.30;1.00;;;;;;5035688;28;20499;-76
2021/06/17 04:47:08;;;;;;;21.23;16.30;;;20.50;1.00;;;;;;5034735;28;20448;-79
2021/06/17 04:49:37;;;;;;;18.27;16.50;;;20.50;1.00;;;;;;5034848;28;20455;-76
2021/06/17 04:52:05;;;;;;;18.97;16.80;;;20.50;1.00;;;;;;5033311;28;22825;-77
2021/06/17 04:54:32;;;;;;;18.33;16.60;;;20.50;1.00;;;;;;5035112;28;20475;-77
2021/06/17 04:56:59;;;;;;;18.60;16.63;;;20.60;1.00;;;;;;5032945;28;20445;-76
2021/06/17 04:59:26;;;;;;;18.60;16.93;;;20.60;1.00;;;;;;5032207;28;20556;-76
2021/06/17 05:01:55;;;;;;;18.83;16.83;;;20.70;1.00;;;;;;5034561;28;20974;-76
2021/06/17 05:04:22;;;;;;;19.50;17.57;;;20.70;1.00;;;;;;5032943;28;20472;-76
2021/06/17 05:06:58;;;;;;;18.23;16.53;;;20.80;1.00;;;;;;5035330;28;20440;-77
2021/06/17 05:12:10;;;;;;;18.73;17.13;;;20.90;1.00;;;;;;5037506;28;20479;-76
2021/06/17 05:14:37;;;;;;;18.47;16.47;;;21.00;1.00;;;;;;5037363;28;21228;-76
2021/06/17 05:17:05;;;;;;;17.47;15.87;;;21.00;1.00;;;;;;5043754;28;20460;-77
2021/06/17 05:19:31;;;;;;;20.17;18.20;;;21.10;1.00;;;;;;5050664;28;20495;-76
2021/06/17 05:21:59;;;;;;;18.00;16.60;;;21.10;1.00;;;;;;5046264;28;20495;-76
2021/06/17 05:24:26;;;;;;;19.33;17.83;;;21.30;1.00;;;;;;5045153;28;20483;-75
2021/06/17 05:26:53;;;;;;;20.13;18.33;;;21.30;1.00;;;;;;5051084;28;20448;-75
2021/06/17 05:29:20;;;;;;;18.30;16.80;;;21.40;1.00;;;;;;5051044;28;20471;-76
2021/06/17 05:31:47;;;;;;;19.70;18.03;;;21.50;1.00;;;;;;5052893;28;20471;-75
2021/06/17 05:34:16;;;;;;;19.60;17.80;;;21.60;1.00;;;;;;5074822;28;20701;-79
2021/06/17 05:36:43;;;;;;;18.57;16.90;;;21.60;1.00;;;;;;5066881;28;20412;-76
2021/06/17 05:39:09;;;;;;;33.93;30.63;;;21.70;1.00;;;;;;5068734;28;20489;-76
2021/06/17 05:41:36;;;;;;;18.27;16.53;;;21.80;1.00;;;;;;5065040;28;20471;-83
2021/06/17 05:44:03;;;;;;;17.50;15.97;;;22.00;1.00;;;;;;5076391;28;20440;-82
2021/06/17 05:46:32;;;;;;;17.90;16.30;;;22.10;1.00;;;;;;5075728;27;20417;-82
2021/06/17 05:48:59;;;;;;;18.13;16.33;;;22.20;1.00;;;;;;5094702;27;20431;-88
2021/06/17 05:51:28;;;;;;;18.83;17.27;;;22.30;1.00;;;;;;5075992;28;20426;-84
2021/06/17 05:53:54;;;;;;;19.73;18.03;;;22.30;1.00;;;;;;5096342;27;20505;-82
2021/06/17 05:56:21;;;;;;;18.37;16.67;;;22.40;1.00;;;;;;5090445;27;20626;-84
2021/06/17 05:58:48;;;;;;;18.93;17.33;;;22.50;1.00;;;;;;5092233;27;20397;-81
2021/06/17 06:01:15;;;;;;;18.40;16.77;;;22.60;1.00;;;;;;5093963;27;20408;-82
2021/06/17 06:03:42;;;;;;;19.30;17.30;;;22.70;1.00;;;;;;5090681;28;20405;-82
2021/06/17 06:06:09;;;;;;;18.07;16.57;;;22.80;1.00;;;;;;5090069;28;20430;-81
2021/06/17 06:08:38;;;;;;;19.57;17.50;;;22.90;1.00;;;;;;5071936;28;20431;-82
2021/06/17 06:11:05;;;;;;;17.37;15.97;;;23.10;1.00;;;;;;5059025;28;20435;-82
2021/06/17 06:13:32;;;;;;;18.27;16.87;;;23.10;1.00;;;;;;5075700;28;20456;-81
2021/06/17 06:15:59;;;;;;;18.40;17.00;;;23.20;1.00;;;;;;5079690;28;22325;-82
2021/06/17 06:18:26;;;;;;;18.40;16.73;;;23.40;1.00;;;;;;5074207;28;20418;-82
2021/06/17 06:20:56;;;;;;;17.17;15.90;;;23.50;1.00;;;;;;5072035;28;20440;-82
2021/06/17 06:23:23;;;;;;;18.10;16.70;;;23.50;1.00;;;;;;5073995;28;20451;-81
2021/06/17 06:25:52;;;;;;;17.67;16.17;;;23.50;1.00;;;;;;5062906;28;20459;-81
2021/06/17 06:28:20;;;;;;;17.80;16.07;;;23.60;1.00;;;;;;5068728;28;20511;-80
2021/06/17 06:30:48;;;;;;;16.87;15.57;;;23.70;1.00;;;;;;5066217;28;20455;-80
2021/06/17 06:33:15;;;;;;;18.27;16.67;;;23.80;1.00;;;;;;5072696;28;20901;-81
2021/06/17 06:35:42;;;;;;;17.53;16.13;;;23.90;1.00;;;;;;5063754;28;20529;-80
2021/06/17 06:38:10;;;;;;;18.07;16.57;;;24.00;1.00;;;;;;5066141;28;20892;-82
2021/06/17 06:40:37;;;;;;;17.40;16.03;;;24.10;1.00;;;;;;5077435;28;20507;-82
2021/06/17 06:43:06;;;;;;;15.67;14.30;;;24.20;1.00;;;;;;5078526;28;20459;-82
2021/06/17 06:45:33;;;;;;;17.80;16.20;;;24.30;1.00;;;;;;5072031;28;20880;-83
2021/06/17 06:48:00;;;;;;;17.17;15.80;;;24.30;1.00;;;;;;5053951;28;20422;-83
2021/06/17 06:50:27;;;;;;;16.17;14.80;;;24.50;1.00;;;;;;5049315;28;20455;-82
2021/06/17 06:52:54;;;;;;;17.00;15.73;;;24.50;1.00;;;;;;5065443;28;20458;-80
2021/06/17 06:55:21;;;;;;;17.33;15.87;;;24.60;1.00;;;;;;5066436;28;21279;-80
2021/06/17 06:57:48;;;;;;;15.77;14.43;;;24.80;1.00;;;;;;5064006;28;20444;-83
2021/06/17 07:00:18;;;;;;;17.90;15.93;;;24.90;1.00;;;;;;5058112;28;20430;-82
2021/06/17 07:02:46;;;;;;;18.83;15.27;;;25.00;1.00;;;;;;5065683;28;20479;-81
2021/06/17 07:05:14;;;;;;;16.47;14.80;;;25.10;1.00;;;;;;5074255;28;20420;-83
2021/06/17 07:07:41;;;;;;;24.20;21.67;;;25.20;1.00;;;;;;5076039;28;20974;-82
2021/06/17 07:10:09;;;;;;;16.40;15.00;;;25.30;1.00;;;;;;5059655;28;20457;-81
2021/06/17 07:12:36;;;;;;;14.93;13.80;;;25.40;1.00;;;;;;5059632;28;21199;-81
2021/06/17 07:15:04;;;;;;;15.60;14.30;;;25.50;1.00;;;;;;5061858;28;20469;-82
2021/06/17 07:17:32;;;;;;;15.63;14.33;;;25.50;1.00;;;;;;5064240;28;20432;-82
2021/06/17 07:19:59;;;;;;;16.50;15.10;;;25.60;1.00;;;;;;5070458;28;20451;-83
2021/06/17 07:22:27;;;;;;;14.50;13.27;;;25.70;1.00;;;;;;5075569;28;20520;-82
2021/06/17 07:24:54;;;;;;;15.67;14.47;;;25.80;1.00;;;;;;5063590;28;21606;-82
2021/06/17 07:27:21;;;;;;;15.37;13.80;;;25.90;1.00;;;;;;5064425;28;20512;-79
2021/06/17 07:29:51;;;;;;;16.47;14.43;;;25.90;1.00;;;;;;5076498;28;20534;-82
2021/06/17 07:32:17;;;;;;;15.87;14.67;;;26.00;1.00;;;;;;5069592;28;20853;-82
2021/06/17 07:34:46;;;;;;;14.97;13.70;;;26.10;1.00;;;;;;5069567;28;20468;-81
2021/06/17 07:37:14;;;;;;;15.07;13.77;;;26.10;1.00;;;;;;5065643;28;20888;-83
2021/06/17 07:39:41;;;;;;;14.83;13.73;;;26.20;1.00;;;;;;5069896;28;21002;-82
2021/06/17 07:42:10;;;;;;;15.60;14.20;;;26.40;1.00;;;;;;5063472;28;20480;-82
2021/06/17 07:44:37;;;;;;;16.80;14.97;;;26.50;1.00;;;;;;5063411;28;20432;-81
2021/06/17 07:47:04;;;;;;;15.27;14.07;;;26.70;1.00;;;;;;5060233;28;20416;-82
2021/06/17 07:49:30;;;;;;;14.73;13.47;;;26.90;1.00;;;;;;5061940;28;20478;-82
2021/06/17 07:51:59;;;;;;;14.77;13.67;;;27.00;1.00;;;;;;5060682;28;20541;-81
2021/06/17 07:54:26;;;;;;;14.33;13.03;;;27.20;1.00;;;;;;5059502;28;20482;-80
2021/06/17 07:56:53;;;;;;;14.73;13.40;;;27.40;1.00;;;;;;5044657;28;20502;-80
2021/06/17 07:59:22;;;;;;;13.70;12.50;;;27.60;1.00;;;;;;5062828;28;20400;-82
2021/06/17 08:01:50;;;;;;;13.10;12.00;;;27.70;1.00;;;;;;5061687;28;20982;-80
2021/06/17 08:04:17;;;;;;;14.90;13.43;;;28.00;1.00;;;;;;5059595;28;20428;-82
2021/06/17 08:06:44;;;;;;;13.00;11.87;;;28.20;1.00;;;;;;5056610;28;20510;-82
2021/06/17 08:09:17;;;;;;;14.40;12.90;;;28.30;1.00;;;;;;5064296;28;20548;-82
2021/06/17 08:11:44;;;;;;;14.67;13.20;;;28.40;1.00;;;;;;5057764;28;20447;-79
2021/06/17 08:14:11;;;;;;;12.93;11.80;;;28.50;1.00;;;;;;5065986;28;20453;-80
2021/06/17 08:16:38;;;;;;;13.27;11.77;;;28.60;1.00;;;;;;5064274;28;20657;-80
2021/06/17 08:19:04;;;;;;;15.07;13.37;;;28.80;1.00;;;;;;5064463;28;20547;-80
2021/06/17 08:21:32;;;;;;;11.83;10.80;;;29.00;1.00;;;;;;5060824;28;20521;-81
2021/06/17 08:23:58;;;;;;;11.70;10.50;;;29.10;1.00;;;;;;5063252;28;20476;-81
2021/06/17 08:26:26;;;;;;;13.00;11.90;;;29.20;1.00;;;;;;5062856;28;20536;-82
2021/06/17 08:28:53;;;;;;;11.90;11.03;;;29.20;1.00;;;;;;5064181;28;20470;-79
2021/06/17 08:31:20;;;;;;;12.30;11.33;;;29.20;1.00;;;;;;5064516;28;20434;-81
2021/06/17 08:33:46;;;;;;;15.30;12.23;;;29.30;1.00;;;;;;5059386;28;20442;-82
2021/06/17 08:36:15;;;;;;;12.30;11.10;;;29.40;1.00;;;;;;5064059;28;20491;-82
2021/06/17 08:38:42;;;;;;;12.17;11.07;;;29.70;1.00;;;;;;5079014;28;20438;-80
2021/06/17 08:41:09;;;;;;;11.60;10.60;;;29.90;1.00;;;;;;5075593;28;22114;-80
2021/06/17 08:43:38;;;;;;;13.00;11.67;;;30.00;1.00;;;;;;5067162;28;20456;-81
2021/06/17 08:46:05;;;;;;;12.50;11.50;;;30.00;1.00;;;;;;5061718;28;20409;-81
2021/06/17 08:48:32;;;;;;;11.13;10.20;;;30.20;1.00;;;;;;5065505;28;20437;-81
2021/06/17 08:51:00;;;;;;;11.20;10.30;;;30.30;1.00;;;;;;5057456;28;20460;-80
2021/06/17 08:53:27;;;;;;;11.50;10.70;;;30.30;1.00;;;;;;5063792;28;21057;-80
2021/06/17 08:55:53;;;;;;;10.60;9.87;;;30.40;1.00;;;;;;5061928;28;20471;-81
2021/06/17 08:58:20;;;;;;;10.80;10.00;;;30.40;1.00;;;;;;5060493;28;21360;-80
2021/06/17 09:00:49;;;;;;;10.30;9.50;;;30.40;1.00;;;;;;5058543;28;20452;-79
2021/06/17 09:03:17;;;;;;;10.60;9.70;;;30.60;1.00;;;;;;5060191;28;21244;-81
2021/06/17 09:05:46;;;;;;;10.67;9.77;;;30.60;1.00;;;;;;5064504;28;20544;-82
2021/06/17 09:08:15;;;;;;;10.70;9.90;;;30.70;1.00;;;;;;5056760;28;20452;-82
2021/06/17 09:10:43;;;;;;;11.73;10.67;;;30.80;1.00;;;;;;5067834;28;20934;-81
2021/06/17 09:13:13;;;;;;;10.10;8.87;;;31.00;1.00;;;;;;5061300;28;20992;-81
2021/06/17 09:15:44;;;;;;;10.20;9.30;;;31.00;1.00;;;;;;5072053;28;20941;-81
2021/06/17 09:18:18;;;;;;;10.93;9.67;;;31.00;1.00;;;;;;5064786;28;20463;-80
2021/06/17 09:20:47;;;;;;;9.80;9.10;;;31.10;1.00;;;;;;5045225;28;20897;-80
2021/06/17 09:23:37;;;;;;;10.40;9.53;;;31.10;1.00;;;;;;5045712;28;20445;-81
2021/06/17 09:26:07;;;;;;;10.10;9.37;;;31.10;1.00;;;;;;5056991;28;20505;-80
2021/06/17 09:28:55;;;;;;;10.13;9.30;;;31.10;1.00;;;;;;5058280;28;20480;-80
2021/06/17 09:31:23;;;;;;;9.00;8.30;;;31.30;1.00;;;;;;5059869;28;20549;-81
2021/06/17 09:33:54;;;;;;;9.40;8.80;;;31.30;1.00;;;;;;5061118;28;21296;-80
2021/06/17 09:36:22;;;;;;;10.43;9.10;;;31.50;1.00;;;;;;5061810;28;20462;-79
2021/06/17 09:38:52;;;;;;;10.73;9.83;;;31.80;1.00;;;;;;5062573;28;20447;-80
2021/06/17 09:41:47;;;;;;;9.57;8.83;;;32.20;1.00;;;;;;5059752;28;20475;-80
2021/06/17 09:44:29;;;;;;;9.47;8.77;;;33.50;1.00;;;;;;5000505;28;20495;-80
2021/06/17 09:47:10;;;;;;;8.67;7.87;;;34.90;1.00;;;;;;5061545;28;20459;-80
2021/06/17 09:49:39;;;;;;;8.10;7.50;;;36.20;1.00;;;;;;5057641;28;21270;-79
2021/06/17 09:52:07;;;;;;;9.80;8.83;;;36.80;1.00;;;;;;5058114;28;21619;-79
2021/06/17 09:54:36;;;;;;;8.13;7.33;;;37.30;1.00;;;;;;5060546;28;20432;-81
2021/06/17 09:57:05;;;;;;;6.57;6.17;;;37.30;1.00;;;;;;5069184;28;20420;-79
2021/06/17 09:59:35;;;;;;;7.07;6.47;;;37.40;1.00;;;;;;5061764;28;20456;-80
2021/06/17 10:02:03;;;;;;;8.30;7.70;;;38.10;1.00;;;;;;5059823;28;20505;-81
2021/06/17 10:04:30;;;;;;;7.93;7.20;;;39.00;1.00;;;;;;5055449;28;21315;-80
2021/06/17 10:06:58;;;;;;;8.30;7.60;;;39.80;1.00;;;;;;5063983;28;20490;-80
2021/06/17 10:09:25;;;;;;;7.67;7.03;;;40.20;1.00;;;;;;5058551;28;20456;-80
2021/06/17 10:11:53;;;;;;;7.33;6.77;;;40.10;1.00;;;;;;5067856;28;20526;-78
2021/06/17 10:14:20;;;;;;;6.83;6.43;;;39.90;1.00;;;;;;5063461;28;20471;-77
2021/06/17 10:16:47;;;;;;;7.33;6.83;;;39.70;1.00;;;;;;5058918;28;21077;-77
2021/06/17 10:19:18;;;;;;;7.23;6.73;;;40.50;1.00;;;;;;5059285;28;20466;-81
2021/06/17 10:21:45;;;;;;;7.23;6.70;;;41.00;1.00;;;;;;5069191;28;20433;-79
2021/06/17 10:24:15;;;;;;;9.67;7.40;;;41.40;1.00;;;;;;5050838;28;20446;-78
2021/06/17 10:26:44;;;;;;;6.37;5.87;;;41.80;1.00;;;;;;5062499;28;20460;-79
2021/06/17 10:29:23;;;;;;;6.83;6.33;;;42.00;1.00;;;;;;5076924;28;20443;-81
2021/06/17 10:31:51;;;;;;;6.40;5.90;;;41.70;1.00;;;;;;5077304;28;20424;-78
2021/06/17 10:34:37;;;;;;;6.90;6.50;;;41.20;1.00;;;;;;5071902;28;20992;-78
2021/06/17 10:37:25;;;;;;;6.40;5.90;;;41.30;1.00;;;;;;5071345;28;20452;-79
2021/06/17 10:39:55;;;;;;;6.50;5.93;;;41.90;1.00;;;;;;5061984;28;20444;-79
2021/06/17 10:42:31;;;;;;;6.53;6.03;;;42.20;1.00;;;;;;5074521;28;22956;-81
2021/06/17 10:44:59;;;;;;;6.97;6.37;;;41.70;1.00;;;;;;5070980;28;20427;-77
2021/06/17 10:47:56;;;;;;;7.90;6.30;;;41.60;1.00;;;;;;5072218;28;20473;-76
2021/06/17 10:50:29;;;;;;;7.10;6.50;;;41.80;1.00;;;;;;5063578;28;20464;-76
2021/06/17 10:53:16;;;;;;;8.07;7.47;;;42.30;1.00;;;;;;5068620;28;21357;-80
2021/06/17 10:56:02;;;;;;;7.50;7.00;;;42.90;1.00;;;;;;5064215;28;21280;-79
2021/06/17 10:58:52;;;;;;;6.87;6.47;;;43.40;1.00;;;;;;5070672;28;20470;-80
2021/06/17 11:01:44;;;;;;;7.00;6.40;;;43.20;1.00;;;;;;5059333;28;20512;-80
2021/06/17 11:04:16;;;;;;;7.30;6.77;;;42.90;1.00;;;;;;5062798;28;20529;-78
2021/06/17 11:07:10;;;;;;;7.20;6.60;;;43.00;1.00;;;;;;5049795;28;20443;-80
2021/06/17 11:09:44;;;;;;;6.73;6.13;;;43.60;1.00;;;;;;5066054;28;20480;-79
2021/06/17 11:12:54;;;;;;;6.20;5.80;;;43.50;1.00;;;;;;5070703;28;20468;-79
2021/06/17 11:15:44;;;;;;;6.73;6.13;;;43.60;1.00;;;;;;5070301;28;20550;-79
2021/06/17 11:18:11;;;;;;;6.13;5.63;;;44.10;1.00;;;;;;5066353;28;20447;-78
2021/06/17 11:20:43;;;;;;;5.57;5.10;;;44.10;1.00;;;;;;5067645;28;20454;-79
2021/06/17 11:23:10;;;;;;;5.43;5.13;;;44.10;1.00;;;;;;5046961;28;20490;-80
2021/06/17 11:25:40;;;;;;;6.40;5.90;;;44.50;1.00;;;;;;5067322;28;20470;-78
2021/06/17 11:28:10;;;;;;;6.10;5.60;;;44.70;1.00;;;;;;5061307;28;20415;-81
2021/06/17 11:30:56;;;;;;;7.10;5.80;;;44.20;1.00;;;;;;5066420;28;20471;-79
2021/06/17 11:33:43;;;;;;;5.93;5.43;;;44.20;1.00;;;;;;5068361;28;20455;-79
2021/06/17 11:36:16;;;;;;;6.33;5.93;;;42.60;1.00;;;;;;5066409;28;20538;-79
2021/06/17 11:38:43;;;;;;;7.03;5.93;;;42.80;1.00;;;;;;5066444;28;20465;-82
2021/06/17 11:41:13;;;;;;;5.87;5.37;;;43.80;1.00;;;;;;5069255;28;20598;-83
2021/06/17 11:43:43;;;;;;;5.93;5.53;;;44.50;1.00;;;;;;5067603;28;20522;-82
2021/06/17 11:46:20;;;;;;;6.30;5.73;;;44.70;1.00;;;;;;5083372;28;21997;-85
2021/06/17 11:48:54;;;;;;;5.73;5.33;;;45.30;1.00;;;;;;5071430;28;21191;-85
2021/06/17 11:51:22;;;;;;;5.10;4.70;;;45.70;1.00;;;;;;5065116;28;20582;-83
2021/06/17 11:53:50;;;;;;;7.27;5.33;;;45.80;1.00;;;;;;5049948;28;20459;-83
2021/06/17 11:56:32;;;;;;;5.80;5.40;;;46.40;1.00;;;;;;5066184;28;20448;-83
2021/06/17 11:59:25;;;;;;;5.60;5.13;;;46.60;1.00;;;;;;5080552;28;20453;-83
2021/06/17 12:02:02;;;;;;;5.90;5.40;;;46.30;1.00;;;;;;5078224;28;21788;-84
2021/06/17 12:04:42;;;;;;;7.33;6.00;;;45.90;1.00;;;;;;5074951;28;20473;-82
2021/06/17 12:07:09;;;;;;;6.50;5.90;;;46.20;1.00;;;;;;5067232;28;20450;-82
2021/06/17 12:09:38;;;;;;;5.50;5.10;;;46.30;1.00;;;;;;5068590;28;20447;-82
2021/06/17 12:12:16;;;;;;;6.20;5.70;;;46.10;1.00;;;;;;5053935;28;20443;-82
2021/06/17 12:14:44;;;;;;;6.17;5.77;;;46.40;1.00;;;;;;5063892;28;20523;-84
2021/06/17 12:17:12;;;;;;;5.57;5.10;;;46.60;1.00;;;;;;5067921;28;20487;-80
2021/06/17 12:19:39;;;;;;;7.40;5.30;;;46.40;1.00;;;;;;5075809;28;20420;-82
2021/06/17 12:22:08;;;;;;;5.47;5.17;;;46.50;1.00;;;;;;5066951;28;20457;-81
2021/06/17 12:24:36;;;;;;;5.90;5.40;;;46.00;1.00;;;;;;5068383;28;20450;-81
2021/06/17 12:27:05;;;;;;;5.80;5.40;;;45.70;1.00;;;;;;5070772;28;21339;-81
2021/06/17 12:29:31;;;;;;;6.07;5.53;;;44.70;1.00;;;;;;5071387;28;20439;-82
2021/06/17 12:32:01;;;;;;;6.70;6.10;;;44.10;1.00;;;;;;5069490;28;20463;-81
2021/06/17 12:34:38;;;;;;;6.73;6.07;;;44.10;1.00;;;;;;5068850;28;21535;-82
2021/06/17 12:37:07;;;;;;;6.00;5.50;;;44.20;1.00;;;;;;5046736;28;20470;-82
2021/06/17 12:39:34;;;;;;;5.13;4.57;;;44.00;1.00;;;;;;5072318;28;20965;-83
2021/06/17 12:42:08;;;;;;;6.40;5.80;;;44.70;1.00;;;;;;5065382;28;20432;-82
2021/06/17 12:44:37;;;;;;;7.27;6.40;;;45.70;1.00;;;;;;5066420;28;20451;-80
2021/06/17 12:47:10;;;;;;;6.17;5.70;;;46.80;1.00;;;;;;5064799;28;20482;-81
2021/06/17 12:52:30;;;;;;;7.63;6.87;;;43.40;1.00;;;;;;5069526;28;20547;-83
2021/06/17 12:54:57;;;;;;;7.03;6.50;;;42.10;1.00;;;;;;5064081;28;20485;-81
2021/06/17 12:57:25;;;;;;;7.30;6.60;;;41.40;1.00;;;;;;5065199;28;20421;-81
2021/06/17 12:59:55;;;;;;;7.47;6.90;;;41.70;1.00;;;;;;5065273;28;20420;-81
2021/06/17 13:02:48;;;;;;;7.40;6.80;;;41.50;1.00;;;;;;5067514;28;22496;-81
2021/06/17 13:05:17;;;;;;;8.40;7.80;;;40.30;1.00;;;;;;5050346;28;20439;-80